createdAt,value
2023-01-30T00:00:00.017Z,102719.58
2023-01-30T00:02:16.040Z,102722.23
2023-01-30T00:04:29.982Z,102723.33
2023-01-30T00:06:43.047Z,102727.71
2023-01-30T00:08:56.184Z,102728.70
2023-01-30T00:11:13.425Z,102720.28
2023-01-30T00:13:31.332Z,102719.63
2023-01-30T00:15:47.669Z,102714.31
2023-01-30T00:18:03.862Z,102713.98
2023-01-30T00:20:21.208Z,102716.33
2023-01-30T00:22:34.659Z,102712.90
2023-01-30T00:24:47.288Z,102710.30
2023-01-30T00:27:02.863Z,102700.59
2023-01-30T00:29:15.664Z,102693.73
2023-01-30T00:31:28.960Z,102696.68
2023-01-30T00:33:42.333Z,102696.05
2023-01-30T00:35:56.577Z,102706.35
2023-01-30T00:38:09.320Z,102700.80
2023-01-30T00:40:25.348Z,102705.09
2023-01-30T00:42:56.024Z,102709.27
2023-01-30T00:45:25.728Z,102707.66
2023-01-30T00:47:40.883Z,102709.39
2023-01-30T00:49:53.483Z,102710.77
2023-01-30T00:52:06.447Z,102712.50
2023-01-30T00:54:19.426Z,102716.07
2023-01-30T00:56:32.052Z,102718.73
2023-01-30T00:58:44.757Z,102723.14
2023-01-30T01:00:58.572Z,102731.38
2023-01-30T01:03:11.715Z,102728.16
2023-01-30T01:05:25.238Z,102733.43
2023-01-30T01:07:38.969Z,102733.67
2023-01-30T01:09:53.002Z,102737.33
2023-01-30T01:12:06.181Z,102730.77
2023-01-30T01:14:21.340Z,102730.93
2023-01-30T01:16:35.596Z,102732.05
2023-01-30T01:18:48.811Z,102734.73
2023-01-30T01:21:01.772Z,102740.80
2023-01-30T01:23:16.370Z,102742.06
2023-01-30T01:25:29.765Z,102739.30
2023-01-30T01:27:42.629Z,102741.37
2023-01-30T01:29:56.038Z,102743.99
2023-01-30T01:32:08.812Z,102743.70
2023-01-30T01:34:21.691Z,102747.21
2023-01-30T01:36:53.732Z,102750.23
2023-01-30T01:39:10.472Z,102761.97
2023-01-30T01:41:26.592Z,102771.54
2023-01-30T01:43:42.471Z,102770.50
2023-01-30T01:46:00.643Z,102762.70
2023-01-30T01:48:24.972Z,102767.77
2023-01-30T01:50:54.319Z,102758.00
2023-01-30T01:53:08.059Z,102766.20
2023-01-30T01:55:22.797Z,102769.96
2023-01-30T01:57:42.987Z,102767.30
2023-01-30T02:00:01.051Z,102773.04
2023-01-30T02:02:20.716Z,102773.92
2023-01-30T02:04:55.216Z,102775.16
2023-01-30T02:07:08.454Z,102766.08
2023-01-30T02:09:21.396Z,102760.91
2023-01-30T02:11:41.330Z,102756.73
2023-01-30T02:13:55.304Z,102756.86
2023-01-30T02:16:12.306Z,102758.52
2023-01-30T02:18:26.788Z,102757.73
2023-01-30T02:20:52.540Z,102764.69
2023-01-30T02:23:43.341Z,102764.19
2023-01-30T02:26:24.205Z,102767.08
2023-01-30T02:28:58.518Z,102759.83
2023-01-30T02:31:35.684Z,102764.91
2023-01-30T02:33:57.469Z,102760.61
2023-01-30T02:36:19.259Z,102761.71
2023-01-30T02:38:43.296Z,102754.16
2023-01-30T02:41:08.806Z,102751.00
2023-01-30T02:43:29.827Z,102751.53
2023-01-30T02:45:57.658Z,102752.67
2023-01-30T02:48:14.966Z,102750.23
2023-01-30T02:50:31.913Z,102751.98
2023-01-30T02:52:45.774Z,102756.67
2023-01-30T02:54:59.925Z,102748.29
2023-01-30T02:57:24.778Z,102745.55
2023-01-30T02:59:44.136Z,102754.55
2023-01-30T03:02:33.853Z,102755.41
2023-01-30T03:05:07.241Z,102755.38
2023-01-30T03:07:31.312Z,102755.63
2023-01-30T03:09:56.622Z,102760.48
2023-01-30T03:12:17.185Z,102759.67
2023-01-30T03:14:33.971Z,102749.91
2023-01-30T03:16:50.061Z,102748.04
2023-01-30T03:19:07.427Z,102751.39
2023-01-30T03:21:20.831Z,102750.95
2023-01-30T03:23:33.923Z,102756.84
2023-01-30T03:25:50.892Z,102759.96
2023-01-30T03:28:07.717Z,102757.15
2023-01-30T03:30:28.206Z,102751.83
2023-01-30T03:32:48.620Z,102754.77
2023-01-30T03:35:04.067Z,102758.45
2023-01-30T03:37:16.779Z,102761.58
2023-01-30T03:39:31.975Z,102761.35
2023-01-30T03:41:45.104Z,102757.13
2023-01-30T03:43:58.723Z,102762.44
2023-01-30T03:46:12.222Z,102756.59
2023-01-30T03:48:25.879Z,102755.42
2023-01-30T03:50:39.357Z,102751.79
2023-01-30T03:52:55.146Z,102753.21
2023-01-30T03:55:11.826Z,102752.00
2023-01-30T03:57:28.141Z,102752.48
2023-01-30T03:59:40.912Z,102751.48
2023-01-30T04:01:55.337Z,102749.61
2023-01-30T04:04:08.200Z,102749.20
2023-01-30T04:06:24.412Z,102753.41
2023-01-30T04:08:38.241Z,102748.59
2023-01-30T04:10:51.284Z,102743.81
2023-01-30T04:13:04.971Z,102737.46
2023-01-30T04:15:18.695Z,102736.59
2023-01-30T04:17:49.535Z,102738.64
2023-01-30T04:20:31.755Z,102744.89
2023-01-30T04:22:46.149Z,102744.85
2023-01-30T04:24:59.072Z,102748.12
2023-01-30T04:27:19.542Z,102753.36
2023-01-30T04:29:51.831Z,102756.65
2023-01-30T04:32:08.546Z,102758.24
2023-01-30T04:34:23.785Z,102755.48
2023-01-30T04:36:38.000Z,102756.79
2023-01-30T04:38:51.935Z,102759.10
2023-01-30T04:41:05.687Z,102764.65
2023-01-30T04:43:23.017Z,102766.34
2023-01-30T04:45:42.188Z,102766.46
2023-01-30T04:47:57.996Z,102768.25
2023-01-30T04:50:13.209Z,102768.11
2023-01-30T04:52:28.327Z,102771.64
2023-01-30T04:54:42.597Z,102774.75
2023-01-30T04:56:58.744Z,102766.39
2023-01-30T04:59:12.180Z,102758.71
2023-01-30T05:01:34.561Z,102759.55
2023-01-30T05:03:48.291Z,102769.00
2023-01-30T05:06:04.303Z,102772.77
2023-01-30T05:08:18.320Z,102767.98
2023-01-30T05:10:34.741Z,102762.50
2023-01-30T05:12:50.656Z,102760.90
2023-01-30T05:15:07.954Z,102766.75
2023-01-30T05:17:21.059Z,102769.92
2023-01-30T05:19:36.331Z,102769.64
2023-01-30T05:21:49.019Z,102762.55
2023-01-30T05:24:02.485Z,102766.01
2023-01-30T05:26:16.432Z,102767.13
2023-01-30T05:28:31.983Z,102766.35
2023-01-30T05:30:47.034Z,102763.83
2023-01-30T05:33:00.982Z,102770.21
2023-01-30T05:35:15.216Z,102774.48
2023-01-30T05:37:29.950Z,102774.91
2023-01-30T05:39:43.228Z,102776.11
2023-01-30T05:41:59.713Z,102776.34
2023-01-30T05:44:15.636Z,102776.66
2023-01-30T05:46:31.917Z,102775.67
2023-01-30T05:48:44.973Z,102768.16
2023-01-30T05:50:59.484Z,102765.02
2023-01-30T05:53:15.454Z,102766.98
2023-01-30T05:55:28.519Z,102769.49
2023-01-30T05:57:43.765Z,102771.73
2023-01-30T05:59:56.890Z,102774.23
2023-01-30T06:02:11.182Z,102778.23
2023-01-30T06:04:25.298Z,102787.98
2023-01-30T06:06:38.190Z,102791.84
2023-01-30T06:08:51.991Z,102784.23
2023-01-30T06:11:08.562Z,102784.83
2023-01-30T06:13:21.227Z,102778.37
2023-01-30T06:15:36.524Z,102777.90
2023-01-30T06:17:50.788Z,102774.27
2023-01-30T06:20:03.653Z,102772.67
2023-01-30T06:22:19.660Z,102773.30
2023-01-30T06:24:38.598Z,102773.84
2023-01-30T06:26:51.422Z,102778.48
2023-01-30T06:29:05.536Z,102773.90
2023-01-30T06:31:20.390Z,102772.75
2023-01-30T06:33:33.286Z,102770.31
2023-01-30T06:35:47.016Z,102772.83
2023-01-30T06:38:00.113Z,102774.70
2023-01-30T06:40:17.072Z,102774.26
2023-01-30T06:42:30.266Z,102776.02
2023-01-30T06:44:46.465Z,102775.28
2023-01-30T06:46:59.777Z,102772.54
2023-01-30T06:49:12.852Z,102773.77
2023-01-30T06:51:28.587Z,102778.92
2023-01-30T06:53:44.262Z,102778.09
2023-01-30T06:55:57.058Z,102775.67
2023-01-30T06:58:11.239Z,102779.29
2023-01-30T07:00:28.727Z,102786.00
2023-01-30T07:02:45.093Z,102787.02
2023-01-30T07:04:58.173Z,102786.96
2023-01-30T07:07:10.858Z,102783.31
2023-01-30T07:09:23.450Z,102786.91
2023-01-30T07:11:36.169Z,102786.70
2023-01-30T07:13:48.963Z,102787.05
2023-01-30T07:16:02.675Z,102787.27
2023-01-30T07:18:15.247Z,102778.42
2023-01-30T07:20:28.371Z,102782.35
2023-01-30T07:22:43.956Z,102777.34
2023-01-30T07:24:59.660Z,102778.00
2023-01-30T07:27:12.804Z,102776.02
2023-01-30T07:29:28.362Z,102782.77
2023-01-30T07:31:41.433Z,102779.71
2023-01-30T07:33:57.117Z,102779.56
2023-01-30T07:36:10.957Z,102783.48
2023-01-30T07:38:23.689Z,102781.27
2023-01-30T07:40:36.794Z,102784.86
2023-01-30T07:42:58.804Z,102785.94
2023-01-30T07:45:13.199Z,102784.08
2023-01-30T07:47:28.820Z,102781.42
2023-01-30T07:49:43.375Z,102787.58
2023-01-30T07:51:59.298Z,102780.51
2023-01-30T07:54:12.260Z,102775.80
2023-01-30T07:56:28.023Z,102772.62
2023-01-30T07:58:40.608Z,102776.29
2023-01-30T08:00:53.255Z,102784.30
2023-01-30T08:03:06.637Z,102785.21
2023-01-30T08:05:18.991Z,102786.33
2023-01-30T08:07:31.859Z,102781.28
2023-01-30T08:09:44.335Z,102775.00
2023-01-30T08:11:59.702Z,102782.73
2023-01-30T08:14:12.371Z,102781.66
2023-01-30T08:16:24.841Z,102781.29
2023-01-30T08:18:38.225Z,102778.14
2023-01-30T08:20:51.213Z,102767.80
2023-01-30T08:23:06.270Z,102761.88
2023-01-30T08:25:19.234Z,102756.00
2023-01-30T08:27:35.147Z,102756.02
2023-01-30T08:29:47.684Z,102757.88
2023-01-30T08:32:04.460Z,102754.63
2023-01-30T08:34:17.982Z,102753.61
2023-01-30T08:36:31.002Z,102756.48
2023-01-30T08:38:43.672Z,102752.79
2023-01-30T08:40:58.184Z,102747.98
2023-01-30T08:43:11.554Z,102741.79
2023-01-30T08:45:24.494Z,102741.27
2023-01-30T08:47:37.693Z,102734.50
2023-01-30T08:49:52.402Z,102731.61
2023-01-30T08:52:05.247Z,102732.30
2023-01-30T08:54:18.354Z,102725.36
2023-01-30T08:56:34.222Z,102726.52
2023-01-30T08:58:47.869Z,102729.98
2023-01-30T09:01:02.409Z,102733.23
2023-01-30T09:03:15.676Z,102720.86
2023-01-30T09:05:32.128Z,102719.07
2023-01-30T09:07:45.347Z,102719.26
2023-01-30T09:09:58.224Z,102712.18
2023-01-30T09:12:12.587Z,102719.92
2023-01-30T09:14:26.751Z,102717.58
2023-01-30T09:16:39.949Z,102718.03
2023-01-30T09:18:52.818Z,102719.19
2023-01-30T09:21:11.460Z,102714.59
2023-01-30T09:23:24.270Z,102712.93
2023-01-30T09:25:39.849Z,102712.74
2023-01-30T09:27:54.240Z,102714.84
2023-01-30T09:30:06.876Z,102707.27
2023-01-30T09:32:19.446Z,102706.02
2023-01-30T09:34:32.815Z,102705.95
2023-01-30T09:36:46.203Z,102707.51
2023-01-30T09:38:58.956Z,102710.65
2023-01-30T09:41:37.435Z,102706.44
2023-01-30T09:44:02.659Z,102693.77
2023-01-30T09:46:32.065Z,102693.80
2023-01-30T09:48:57.756Z,102698.36
2023-01-30T09:51:22.492Z,102703.26
2023-01-30T09:53:47.111Z,102713.88
2023-01-30T09:56:01.470Z,102720.96
2023-01-30T09:58:20.935Z,102727.02
2023-01-30T10:00:38.337Z,102731.98
2023-01-30T10:03:03.018Z,102734.14
2023-01-30T10:05:16.286Z,102728.70
2023-01-30T10:07:41.723Z,102730.36
2023-01-30T10:10:11.368Z,102730.19
2023-01-30T10:12:42.797Z,102724.80
2023-01-30T10:15:16.597Z,102724.77
2023-01-30T10:17:48.340Z,102728.59
2023-01-30T10:20:25.186Z,102731.03
2023-01-30T10:22:52.469Z,102728.09
2023-01-30T10:25:21.252Z,102723.50
2023-01-30T10:27:41.881Z,102724.91
2023-01-30T10:30:01.466Z,102730.30
2023-01-30T10:32:22.675Z,102735.18
2023-01-30T10:34:40.225Z,102736.39
2023-01-30T10:37:01.601Z,102738.66
2023-01-30T10:39:24.821Z,102731.48
2023-01-30T10:41:44.544Z,102729.91
2023-01-30T10:44:05.384Z,102731.29
2023-01-30T10:46:30.158Z,102728.05
2023-01-30T10:49:02.477Z,102737.73
2023-01-30T10:51:28.365Z,102740.33
2023-01-30T10:53:51.277Z,102742.94
2023-01-30T10:56:09.159Z,102740.77
2023-01-30T10:58:30.513Z,102746.77
2023-01-30T11:00:46.357Z,102742.39
2023-01-30T11:03:11.754Z,102740.55
2023-01-30T11:05:28.146Z,102737.56
2023-01-30T11:07:41.304Z,102737.33
2023-01-30T11:09:54.627Z,102738.88
2023-01-30T11:12:10.170Z,102736.61
2023-01-30T11:14:23.509Z,102744.01
2023-01-30T11:16:37.961Z,102745.12
2023-01-30T11:21:43.635Z,102740.49
2023-01-30T11:23:57.550Z,102735.27
2023-01-30T11:26:11.839Z,102728.16
2023-01-30T11:28:24.646Z,102724.77
2023-01-30T11:30:40.706Z,102726.41
2023-01-30T11:32:54.151Z,102722.69
2023-01-30T11:35:29.352Z,102723.30
2023-01-30T11:37:43.649Z,102720.83
2023-01-30T11:39:57.708Z,102727.64
2023-01-30T11:42:21.513Z,102723.23
2023-01-30T11:44:39.198Z,102726.73
2023-01-30T11:46:52.968Z,102730.34
2023-01-30T11:51:31.644Z,102728.86
2023-01-30T11:51:43.691Z,102721.38
2023-01-30T11:54:00.743Z,102723.98
2023-01-30T11:56:18.914Z,102729.64
2023-01-30T11:58:36.778Z,102725.34
2023-01-30T12:00:52.426Z,102720.64
2023-01-30T12:03:13.483Z,102723.98
2023-01-30T12:05:34.037Z,102730.74
2023-01-30T12:07:48.443Z,102725.15
2023-01-30T12:10:02.321Z,102716.48
2023-01-30T12:12:35.193Z,102708.30
2023-01-30T12:14:51.409Z,102698.56
2023-01-30T12:17:14.823Z,102689.40
2023-01-30T12:19:42.747Z,102683.02
2023-01-30T12:22:10.571Z,102681.70
2023-01-30T12:24:32.246Z,102689.86
2023-01-30T12:26:50.820Z,102688.41
2023-01-30T12:29:13.540Z,102682.26
2023-01-30T12:31:30.545Z,102679.27
2023-01-30T12:33:43.649Z,102672.51
2023-01-30T12:36:12.364Z,102678.71
2023-01-30T12:38:44.991Z,102687.86
2023-01-30T12:41:08.725Z,102691.90
2023-01-30T12:43:45.082Z,102696.58
2023-01-30T12:46:09.139Z,102706.18
2023-01-30T12:49:07.633Z,102705.31
2023-01-30T12:51:39.579Z,102713.87
2023-01-30T12:54:11.663Z,102716.70
2023-01-30T12:56:51.976Z,102718.84
2023-01-30T12:59:10.076Z,102719.35
2023-01-30T13:01:31.611Z,102733.45
2023-01-30T13:03:53.351Z,102735.27
2023-01-30T13:06:21.882Z,102742.30
2023-01-30T13:08:46.127Z,102742.64
2023-01-30T13:11:15.579Z,102747.96
2023-01-30T13:13:37.034Z,102753.79
2023-01-30T13:15:57.807Z,102757.77
2023-01-30T13:18:18.659Z,102758.27
2023-01-30T13:20:52.950Z,102754.73
2023-01-30T13:23:14.321Z,102757.09
2023-01-30T13:25:37.228Z,102752.59
2023-01-30T13:27:55.857Z,102751.40
2023-01-30T13:30:21.934Z,102758.89
2023-01-30T13:32:42.587Z,102761.05
2023-01-30T13:34:57.936Z,102752.07
2023-01-30T13:37:14.791Z,102753.03
2023-01-30T13:39:33.948Z,102752.14
2023-01-30T13:41:54.685Z,102754.19
2023-01-30T13:44:17.198Z,102757.89
2023-01-30T13:46:32.927Z,102759.05
2023-01-30T13:48:59.943Z,102751.78
2023-01-30T13:51:40.976Z,102747.77
2023-01-30T13:53:58.588Z,102749.96
2023-01-30T13:56:40.240Z,102754.02
2023-01-30T13:59:03.571Z,102749.97
2023-01-30T14:01:17.272Z,102746.42
2023-01-30T14:03:41.523Z,102746.71
2023-01-30T14:06:33.317Z,102749.21
2023-01-30T14:08:54.640Z,102750.33
2023-01-30T14:11:08.282Z,102753.71
2023-01-30T14:13:22.652Z,102752.69
2023-01-30T14:15:38.909Z,102753.42
2023-01-30T14:18:07.333Z,102754.78
2023-01-30T14:20:26.227Z,102751.71
2023-01-30T14:22:53.806Z,102747.15
2023-01-30T14:25:48.259Z,102753.02
2023-01-30T14:28:22.003Z,102753.52
2023-01-30T14:30:53.210Z,102743.81
2023-01-30T14:33:27.693Z,102739.30
2023-01-30T14:35:40.547Z,102737.04
2023-01-30T14:38:12.477Z,102734.04
2023-01-30T14:40:44.451Z,102731.77
2023-01-30T14:43:25.880Z,102731.55
2023-01-30T14:45:53.879Z,102729.58
2023-01-30T14:48:33.213Z,102732.13
2023-01-30T14:50:49.674Z,102726.81
2023-01-30T14:53:03.030Z,102723.48
2023-01-30T14:55:26.287Z,102722.57
2023-01-30T14:57:38.893Z,102721.70
2023-01-30T15:00:14.901Z,102727.86
2023-01-30T15:02:31.976Z,102724.58
2023-01-30T15:04:51.014Z,102717.00
2023-01-30T15:07:09.270Z,102710.09
2023-01-30T15:09:30.644Z,102698.74
2023-01-30T15:11:46.522Z,102691.55
2023-01-30T15:14:10.567Z,102690.56
2023-01-30T15:16:44.246Z,102691.52
2023-01-30T15:19:13.942Z,102698.48
2023-01-30T15:21:50.990Z,102700.67
2023-01-30T15:24:17.891Z,102701.55
2023-01-30T15:26:47.827Z,102700.09
2023-01-30T15:29:17.327Z,102712.05
2023-01-30T15:31:31.246Z,102726.45
2023-01-30T15:33:52.790Z,102728.60
2023-01-30T15:36:20.552Z,102727.61
2023-01-30T15:38:39.384Z,102723.86
2023-01-30T15:40:55.593Z,102718.69
2023-01-30T15:43:25.411Z,102731.08
2023-01-30T15:45:47.589Z,102743.95
2023-01-30T15:48:19.871Z,102752.94
2023-01-30T15:50:34.597Z,102744.73
2023-01-30T15:52:51.096Z,102744.23
2023-01-30T15:55:05.044Z,102753.94
2023-01-30T15:57:27.755Z,102758.25
2023-01-30T15:59:43.008Z,102764.41
2023-01-30T16:02:06.537Z,102769.77
2023-01-30T16:04:35.960Z,102764.79
2023-01-30T16:06:48.684Z,102759.94
2023-01-30T16:09:09.347Z,102756.93
2023-01-30T16:11:41.379Z,102756.17
2023-01-30T16:13:56.043Z,102744.70
2023-01-30T16:16:13.775Z,102743.48
2023-01-30T16:18:36.170Z,102748.11
2023-01-30T16:21:01.969Z,102746.91
2023-01-30T16:23:28.159Z,102741.47
2023-01-30T16:25:41.223Z,102734.04
2023-01-30T16:27:54.956Z,102735.54
2023-01-30T16:30:10.772Z,102734.81
2023-01-30T16:32:29.078Z,102730.09
2023-01-30T16:34:43.619Z,102728.71
2023-01-30T16:36:57.257Z,102729.71
2023-01-30T16:39:32.668Z,102735.20
2023-01-30T16:41:46.595Z,102726.23
2023-01-30T16:44:20.641Z,102715.36
2023-01-30T16:46:55.216Z,102717.53
2023-01-30T16:49:17.617Z,102723.05
2023-01-30T16:51:30.832Z,102725.25
2023-01-30T16:53:57.700Z,102724.92
2023-01-30T16:56:18.054Z,102722.77
2023-01-30T16:58:34.834Z,102714.48
2023-01-30T17:00:53.547Z,102713.50
2023-01-30T17:03:09.655Z,102717.15
2023-01-30T17:05:27.805Z,102717.13
2023-01-30T17:07:43.159Z,102717.06
2023-01-30T17:09:59.191Z,102716.66
2023-01-30T17:12:45.978Z,102720.76
2023-01-30T17:15:35.900Z,102726.14
2023-01-30T17:17:49.473Z,102730.23
2023-01-30T17:20:02.814Z,102733.27
2023-01-30T17:22:25.550Z,102728.31
2023-01-30T17:24:41.413Z,102733.33
2023-01-30T17:27:00.001Z,102732.90
2023-01-30T17:29:24.006Z,102734.61
2023-01-30T17:32:43.652Z,102737.66
2023-01-30T17:34:57.156Z,102747.60
2023-01-30T17:37:13.781Z,102744.67
2023-01-30T17:39:29.447Z,102739.50
2023-01-30T17:41:43.521Z,102739.24
2023-01-30T17:43:59.135Z,102736.91
2023-01-30T17:46:12.535Z,102742.56
2023-01-30T17:48:25.176Z,102741.88
2023-01-30T17:50:39.379Z,102744.25
2023-01-30T17:52:52.315Z,102745.72
2023-01-30T17:55:05.578Z,102743.13
2023-01-30T17:57:19.212Z,102744.07
2023-01-30T17:59:34.748Z,102745.73
2023-01-30T18:01:48.783Z,102755.13
2023-01-30T18:04:02.694Z,102749.46
2023-01-30T18:14:14.485Z,102743.79
2023-01-30T18:16:32.152Z,102747.23
2023-01-30T18:18:47.595Z,102752.55
2023-01-30T18:21:00.908Z,102751.20
2023-01-30T18:23:13.584Z,102752.30
2023-01-30T18:25:26.599Z,102750.19
2023-01-30T18:27:39.943Z,102745.41
2023-01-30T18:29:52.734Z,102747.54
2023-01-30T18:32:06.903Z,102746.42
2023-01-30T18:34:20.962Z,102747.45
2023-01-30T18:36:36.612Z,102739.98
2023-01-30T18:38:49.257Z,102735.02
2023-01-30T18:41:01.952Z,102735.03
2023-01-30T18:43:14.782Z,102737.40
2023-01-30T18:45:27.359Z,102738.14
2023-01-30T18:47:39.984Z,102735.16
2023-01-30T18:49:52.840Z,102724.70
2023-01-30T18:52:06.144Z,102721.77
2023-01-30T18:54:18.707Z,102714.92
2023-01-30T18:56:33.799Z,102718.54
2023-01-30T18:58:47.568Z,102721.33
2023-01-30T19:01:00.942Z,102724.03
2023-01-30T19:03:14.339Z,102724.22
2023-01-30T19:05:27.413Z,102721.45
2023-01-30T19:07:40.945Z,102717.91
2023-01-30T19:09:53.617Z,102715.87
2023-01-30T19:12:22.742Z,102716.61
2023-01-30T19:14:35.394Z,102714.21
2023-01-30T19:16:47.928Z,102707.31
2023-01-30T19:19:01.297Z,102700.86
2023-01-30T19:21:14.082Z,102700.28
2023-01-30T19:23:32.043Z,102695.55
2023-01-30T19:25:44.862Z,102686.94
2023-01-30T19:27:58.070Z,102678.90
2023-01-30T19:30:12.529Z,102666.27
2023-01-30T19:32:25.426Z,102660.92
2023-01-30T19:34:38.277Z,102663.80
2023-01-30T19:36:50.612Z,102660.63
2023-01-30T19:39:04.591Z,102660.05
2023-01-30T19:41:22.818Z,102663.70
2023-01-30T19:43:35.574Z,102657.84
2023-01-30T19:45:59.239Z,102660.19
2023-01-30T19:48:13.229Z,102656.08
2023-01-30T19:50:26.538Z,102650.59
2023-01-30T19:52:39.697Z,102640.89
2023-01-30T19:54:52.796Z,102638.77
2023-01-30T19:57:05.665Z,102634.46
2023-01-30T19:59:18.900Z,102636.45
2023-01-30T20:01:33.850Z,102629.84
2023-01-30T20:03:49.092Z,102629.00
2023-01-30T20:06:13.303Z,102626.73
2023-01-30T20:08:32.609Z,102622.23
2023-01-30T20:10:45.906Z,102616.30
2023-01-30T20:12:59.050Z,102616.61
2023-01-30T20:15:13.001Z,102613.39
2023-01-30T20:17:26.041Z,102612.80
2023-01-30T20:19:38.944Z,102615.23
2023-01-30T20:21:51.804Z,102604.20
2023-01-30T20:24:04.526Z,102603.08
2023-01-30T20:26:20.385Z,102599.91
2023-01-30T20:28:33.703Z,102594.41
2023-01-30T20:30:47.040Z,102592.89
2023-01-30T20:33:02.259Z,102589.69
2023-01-30T20:35:16.825Z,102589.91
2023-01-30T20:37:29.715Z,102589.14
2023-01-30T20:39:42.377Z,102589.52
2023-01-30T20:41:55.472Z,102581.33
2023-01-30T20:44:08.931Z,102584.53
2023-01-30T20:46:22.734Z,102580.90
2023-01-30T20:48:37.361Z,102582.63
2023-01-30T20:50:50.447Z,102574.84
2023-01-30T20:53:02.878Z,102572.29
2023-01-30T20:55:15.990Z,102567.59
2023-01-30T20:57:29.740Z,102567.08
2023-01-30T20:59:42.799Z,102572.77
2023-01-30T21:01:56.552Z,102570.59
2023-01-30T21:04:11.923Z,102564.63
2023-01-30T21:06:37.031Z,102564.75
2023-01-30T21:08:57.792Z,102558.44
2023-01-30T21:11:15.074Z,102555.73
2023-01-30T21:13:28.098Z,102553.51
2023-01-30T21:15:40.730Z,102551.20
2023-01-30T21:17:53.302Z,102548.48
2023-01-30T21:20:05.955Z,102545.09
2023-01-30T21:22:18.974Z,102542.45
2023-01-30T21:24:32.470Z,102537.86
2023-01-30T21:26:47.513Z,102539.00
2023-01-30T21:29:03.031Z,102532.85
2023-01-30T21:31:16.765Z,102535.48
2023-01-30T21:33:29.657Z,102535.38
2023-01-30T21:35:42.216Z,102534.63
2023-01-30T21:38:11.252Z,102528.98
2023-01-30T21:40:41.577Z,102527.98
2023-01-30T21:43:10.877Z,102526.11
2023-01-30T21:45:23.705Z,102524.55
2023-01-30T21:47:37.108Z,102521.52
2023-01-30T21:49:49.951Z,102519.88
2023-01-30T21:52:02.741Z,102523.23
2023-01-30T21:54:15.256Z,102521.46
2023-01-30T21:56:27.839Z,102524.48
2023-01-30T21:58:40.491Z,102525.80
2023-01-30T22:00:53.688Z,102524.19
2023-01-30T22:03:06.442Z,102518.52
2023-01-30T22:05:19.503Z,102514.21
2023-01-30T22:07:32.592Z,102515.95
2023-01-30T22:09:45.569Z,102514.25
2023-01-30T22:11:58.217Z,102514.00
2023-01-30T22:14:10.938Z,102513.02
2023-01-30T22:16:25.396Z,102515.07
2023-01-30T22:18:38.973Z,102518.76
2023-01-30T22:20:52.028Z,102517.97
2023-01-30T22:23:05.652Z,102516.10
2023-01-30T22:25:18.992Z,102514.90
2023-01-30T22:27:32.423Z,102510.95
2023-01-30T22:29:45.095Z,102504.42
2023-01-30T22:31:58.276Z,102506.21
2023-01-30T22:34:11.576Z,102503.70
2023-01-30T22:36:26.458Z,102497.13
2023-01-30T22:38:39.856Z,102497.01
2023-01-30T22:40:52.876Z,102494.15
2023-01-30T22:43:06.161Z,102485.92
2023-01-30T22:45:19.898Z,102486.50
2023-01-30T22:47:32.870Z,102484.71
2023-01-30T22:49:46.647Z,102497.61
2023-01-30T22:51:59.668Z,102499.70
2023-01-30T22:54:16.753Z,102498.19
2023-01-30T22:56:31.250Z,102502.75
2023-01-30T22:58:45.522Z,102498.16
2023-01-30T23:00:58.567Z,102500.50
2023-01-30T23:03:12.619Z,102500.77
2023-01-30T23:05:25.648Z,102504.54
2023-01-30T23:07:39.196Z,102502.66
2023-01-30T23:09:51.837Z,102501.27
2023-01-30T23:12:20.731Z,102497.02
2023-01-30T23:14:33.876Z,102497.79
2023-01-30T23:16:48.139Z,102497.16
2023-01-30T23:19:01.303Z,102499.77
2023-01-30T23:21:18.802Z,102500.47
2023-01-30T23:23:32.153Z,102499.08
2023-01-30T23:25:47.872Z,102496.77
2023-01-30T23:28:01.160Z,102489.86
2023-01-30T23:30:15.622Z,102486.23
2023-01-30T23:32:29.080Z,102486.77
2023-01-30T23:34:42.404Z,102489.10
2023-01-30T23:36:55.727Z,102488.27
2023-01-30T23:39:08.433Z,102492.17
2023-01-30T23:41:22.827Z,102493.92
2023-01-30T23:43:35.385Z,102492.02
2023-01-30T23:45:48.027Z,102488.83
2023-01-30T23:48:00.921Z,102486.95
2023-01-30T23:50:15.431Z,102483.22
2023-01-30T23:52:28.076Z,102483.93
2023-01-30T23:54:40.465Z,102480.19
2023-01-30T23:56:53.481Z,102479.41
2023-01-30T23:59:06.609Z,102474.57
